createdAt,value
2018-03-07T00:01:13.548Z,41.87
2018-03-07T00:03:42.138Z,40.37
2018-03-07T00:06:09.750Z,40.23
2018-03-07T00:08:36.795Z,41.27
2018-03-07T00:11:03.687Z,41.70
2018-03-07T00:13:30.611Z,40.50
2018-03-07T00:15:58.236Z,37.93
2018-03-07T00:18:25.963Z,40.80
2018-03-07T00:21:08.543Z,41.10
2018-03-07T00:23:36.587Z,39.83
2018-03-07T00:26:04.467Z,39.83
2018-03-07T00:28:31.505Z,40.50
2018-03-07T00:30:58.466Z,36.30
2018-03-07T00:33:26.992Z,37.40
2018-03-07T00:35:53.923Z,40.75
2018-03-07T00:38:26.513Z,42.42
2018-03-07T00:40:53.799Z,43.13
2018-03-07T00:43:20.674Z,38.22
2018-03-07T00:45:47.532Z,44.22
2018-03-07T00:48:27.813Z,41.77
2018-03-07T00:50:55.416Z,39.63
2018-03-07T00:53:22.834Z,38.10
2018-03-07T00:55:49.757Z,38.40
2018-03-07T00:58:18.944Z,37.78
2018-03-07T01:00:46.896Z,39.10
2018-03-07T01:03:13.831Z,39.97
2018-03-07T01:05:42.522Z,38.42
2018-03-07T01:08:09.504Z,39.65
2018-03-07T01:10:38.314Z,39.35
2018-03-07T01:13:05.930Z,37.57
2018-03-07T01:15:32.791Z,34.10
2018-03-07T01:17:59.784Z,36.15
2018-03-07T01:20:26.671Z,36.30
2018-03-07T01:22:53.615Z,35.05
2018-03-07T01:25:20.544Z,33.42
2018-03-07T01:27:47.567Z,33.45
2018-03-07T01:30:14.431Z,32.10
2018-03-07T01:32:41.323Z,32.67
2018-03-07T01:35:09.005Z,32.75
2018-03-07T01:37:35.876Z,31.50
2018-03-07T01:40:02.964Z,29.45
2018-03-07T01:42:29.944Z,31.27
2018-03-07T01:44:56.822Z,30.73
2018-03-07T01:47:23.695Z,30.88
2018-03-07T01:49:50.624Z,30.33
2018-03-07T01:52:17.581Z,28.85
2018-03-07T01:54:44.454Z,29.03
2018-03-07T01:57:12.074Z,29.55
2018-03-07T01:59:38.995Z,30.25
2018-03-07T02:02:05.968Z,29.45
2018-03-07T02:04:32.898Z,30.92
2018-03-07T02:06:59.764Z,29.08
2018-03-07T02:09:26.745Z,30.57
2018-03-07T02:11:53.683Z,29.40
2018-03-07T02:14:21.315Z,29.42
2018-03-07T02:16:48.187Z,30.42
2018-03-07T02:19:15.135Z,29.65
2018-03-07T02:21:42.758Z,31.23
2018-03-07T02:24:09.699Z,29.77
2018-03-07T02:26:36.658Z,29.70
2018-03-07T02:29:03.620Z,32.28
2018-03-07T02:31:30.495Z,27.77
2018-03-07T02:33:58.228Z,28.30
2018-03-07T02:36:31.979Z,28.48
2018-03-07T02:38:58.918Z,28.15
2018-03-07T02:41:25.863Z,28.80
2018-03-07T02:43:53.547Z,26.05
2018-03-07T02:46:20.422Z,27.42
2018-03-07T02:48:47.302Z,25.85
2018-03-07T02:51:14.999Z,25.92
2018-03-07T02:53:41.859Z,25.95
2018-03-07T02:56:08.755Z,24.87
2018-03-07T02:58:35.677Z,26.57
2018-03-07T03:01:02.620Z,25.02
2018-03-07T03:03:29.478Z,25.52
2018-03-07T03:05:56.415Z,24.52
2018-03-07T03:08:23.284Z,23.35
2018-03-07T03:10:50.954Z,23.65
2018-03-07T03:13:18.561Z,24.45
2018-03-07T03:15:45.557Z,24.33
2018-03-07T03:18:13.241Z,22.62
2018-03-07T03:20:40.111Z,22.00
2018-03-07T03:23:06.973Z,21.75
2018-03-07T03:25:33.920Z,22.85
2018-03-07T03:28:00.779Z,22.25
2018-03-07T03:30:27.712Z,23.80
2018-03-07T03:32:54.699Z,22.37
2018-03-07T03:35:22.377Z,20.48
2018-03-07T03:37:49.265Z,20.60
2018-03-07T03:40:16.134Z,23.23
2018-03-07T03:42:43.064Z,22.77
2018-03-07T03:45:09.988Z,24.73
2018-03-07T03:47:36.915Z,23.95
2018-03-07T03:50:03.885Z,22.95
2018-03-07T03:52:30.828Z,23.23
2018-03-07T03:54:57.687Z,20.85
2018-03-07T03:57:24.622Z,21.90
2018-03-07T03:59:51.493Z,21.25
2018-03-07T04:02:18.424Z,22.90
2018-03-07T04:04:45.295Z,21.30
2018-03-07T04:07:12.155Z,22.08
2018-03-07T04:09:39.076Z,23.35
2018-03-07T04:12:06.004Z,22.92
2018-03-07T04:14:32.942Z,23.83
2018-03-07T04:16:59.862Z,22.48
2018-03-07T04:19:26.784Z,22.65
2018-03-07T04:21:54.381Z,24.48
2018-03-07T04:24:21.317Z,23.58
2018-03-07T04:26:48.175Z,20.52
2018-03-07T04:29:15.196Z,23.67
2018-03-07T04:31:42.055Z,23.15
2018-03-07T04:34:08.910Z,22.95
2018-03-07T04:36:35.899Z,21.98
2018-03-07T04:39:02.929Z,21.15
2018-03-07T04:41:29.855Z,21.62
2018-03-07T04:43:56.702Z,21.08
2018-03-07T04:46:23.658Z,23.73
2018-03-07T04:48:50.575Z,23.10
2018-03-07T04:51:17.435Z,22.55
2018-03-07T04:53:44.354Z,23.15
2018-03-07T04:56:11.303Z,22.40
2018-03-07T04:58:38.230Z,21.80
2018-03-07T05:01:05.866Z,21.70
2018-03-07T05:03:32.779Z,24.08
2018-03-07T05:05:59.755Z,25.98
2018-03-07T05:08:27.448Z,25.08
2018-03-07T05:10:55.125Z,25.08
2018-03-07T05:13:21.991Z,25.62
2018-03-07T05:15:48.980Z,23.58
2018-03-07T05:18:15.836Z,22.65
2018-03-07T05:20:42.767Z,24.55
2018-03-07T05:23:09.632Z,22.80
2018-03-07T05:25:37.316Z,22.62
2018-03-07T05:28:04.307Z,22.58
2018-03-07T05:30:31.175Z,23.55
2018-03-07T05:32:58.097Z,20.92
2018-03-07T05:35:25.028Z,23.92
2018-03-07T05:37:52.503Z,21.70
2018-03-07T05:40:22.767Z,22.13
2018-03-07T05:42:49.639Z,22.40
2018-03-07T05:45:16.613Z,22.20
2018-03-07T05:47:43.504Z,24.00
2018-03-07T05:50:11.176Z,24.30
2018-03-07T05:52:38.784Z,23.42
2018-03-07T05:55:05.740Z,24.92
2018-03-07T05:57:32.607Z,25.15
2018-03-07T05:59:59.503Z,25.80
2018-03-07T06:02:26.440Z,23.17
2018-03-07T06:05:07.607Z,27.92
2018-03-07T06:07:36.896Z,24.42
2018-03-07T06:10:04.956Z,26.15
2018-03-07T06:12:31.899Z,25.83
2018-03-07T06:14:58.883Z,24.52
2018-03-07T06:17:25.741Z,23.35
2018-03-07T06:19:52.680Z,24.42
2018-03-07T06:22:19.564Z,24.75
2018-03-07T06:24:46.539Z,25.35
2018-03-07T06:27:14.153Z,25.08
2018-03-07T06:29:41.102Z,25.42
2018-03-07T06:32:08.035Z,22.85
2018-03-07T06:34:34.887Z,21.35
2018-03-07T06:37:01.829Z,24.83
2018-03-07T06:39:28.701Z,22.45
2018-03-07T06:41:55.625Z,21.45
2018-03-07T06:44:22.556Z,20.85
2018-03-07T06:46:49.439Z,24.42
2018-03-07T06:49:16.365Z,23.33
2018-03-07T06:51:43.284Z,21.55
2018-03-07T06:54:10.232Z,21.83
2018-03-07T06:56:37.101Z,21.35
2018-03-07T06:59:03.970Z,19.83
2018-03-07T07:01:30.909Z,21.15
2018-03-07T07:03:57.783Z,20.88
2018-03-07T07:06:25.453Z,21.08
2018-03-07T07:08:53.069Z,18.85
2018-03-07T07:11:19.993Z,18.35
2018-03-07T07:13:46.929Z,18.62
2018-03-07T07:16:13.876Z,19.73
2018-03-07T07:18:40.825Z,18.12
2018-03-07T07:21:07.704Z,19.83
2018-03-07T07:23:34.626Z,18.45
2018-03-07T07:26:01.575Z,18.20
2018-03-07T07:28:28.436Z,18.33
2018-03-07T07:30:55.307Z,17.30
2018-03-07T07:33:22.237Z,18.58
2018-03-07T07:35:49.177Z,19.25
2018-03-07T07:38:16.056Z,19.02
2018-03-07T07:40:43.779Z,17.27
2018-03-07T07:43:10.726Z,19.13
2018-03-07T07:45:41.007Z,20.83
2018-03-07T07:48:08.644Z,19.55
2018-03-07T07:50:35.652Z,20.30
2018-03-07T07:53:02.547Z,17.67
2018-03-07T07:55:30.287Z,18.60
2018-03-07T07:57:57.171Z,17.73
2018-03-07T08:00:24.117Z,17.95
2018-03-07T08:02:50.976Z,18.00
2018-03-07T08:05:17.828Z,17.03
2018-03-07T08:07:44.769Z,16.50
2018-03-07T08:10:11.666Z,15.95
2018-03-07T08:12:38.603Z,16.93
2018-03-07T08:15:06.524Z,16.57
2018-03-07T08:17:37.986Z,15.20
2018-03-07T08:20:05.322Z,16.80
2018-03-07T08:22:32.208Z,14.87
2018-03-07T08:24:59.151Z,15.33
2018-03-07T08:27:26.103Z,15.80
2018-03-07T08:29:52.969Z,16.73
2018-03-07T08:32:19.899Z,14.95
2018-03-07T08:34:46.761Z,15.05
2018-03-07T08:37:13.702Z,13.43
2018-03-07T08:39:40.660Z,15.63
2018-03-07T08:42:07.519Z,14.77
2018-03-07T08:44:35.179Z,15.10
2018-03-07T08:47:02.092Z,12.80
2018-03-07T08:49:29.084Z,13.90
2018-03-07T08:51:56.085Z,12.40
2018-03-07T08:54:23.018Z,12.53
2018-03-07T08:56:49.879Z,12.70
2018-03-07T08:59:16.809Z,12.37
2018-03-07T09:01:43.751Z,11.43
2018-03-07T09:04:10.631Z,11.33
2018-03-07T09:06:37.568Z,10.40
2018-03-07T09:09:04.520Z,11.93
2018-03-07T09:11:31.372Z,10.27
2018-03-07T09:13:58.303Z,8.73
2018-03-07T09:16:25.155Z,11.00
2018-03-07T09:18:52.078Z,12.47
2018-03-07T09:21:18.948Z,10.50
2018-03-07T09:23:45.812Z,10.83
2018-03-07T09:26:13.512Z,11.73
2018-03-07T09:28:40.379Z,10.73
2018-03-07T09:31:07.253Z,11.03
2018-03-07T09:33:34.210Z,9.67
2018-03-07T09:36:01.107Z,8.20
2018-03-07T09:38:28.083Z,10.00
2018-03-07T09:40:54.974Z,10.07
2018-03-07T09:43:21.902Z,9.90
2018-03-07T09:45:49.496Z,9.87
2018-03-07T09:48:16.431Z,8.87
2018-03-07T09:50:43.294Z,8.53
2018-03-07T09:53:10.149Z,7.70
2018-03-07T09:55:37.084Z,8.17
2018-03-07T09:58:04.021Z,7.00
2018-03-07T10:00:30.884Z,7.10
2018-03-07T10:02:57.883Z,7.17
2018-03-07T10:05:25.520Z,6.13
2018-03-07T10:07:52.445Z,6.63
2018-03-07T10:10:19.304Z,7.67
2018-03-07T10:12:46.230Z,6.23
2018-03-07T10:15:13.107Z,7.10
2018-03-07T10:17:40.788Z,7.10
2018-03-07T10:20:08.390Z,7.20
2018-03-07T10:22:35.398Z,7.40
2018-03-07T10:25:02.272Z,7.40
2018-03-07T10:27:29.202Z,6.77
2018-03-07T10:29:56.078Z,7.13
2018-03-07T10:32:22.954Z,6.73
2018-03-07T10:34:49.867Z,7.40
2018-03-07T10:37:16.740Z,7.67
2018-03-07T10:39:43.666Z,7.37
2018-03-07T10:42:10.528Z,7.50
2018-03-07T10:44:37.460Z,7.40
2018-03-07T10:47:04.351Z,8.73
2018-03-07T10:49:31.225Z,8.13
2018-03-07T10:51:58.171Z,7.17
2018-03-07T10:54:25.041Z,6.33
2018-03-07T10:56:51.911Z,7.73
2018-03-07T10:59:19.602Z,5.90
2018-03-07T11:01:47.562Z,6.87
2018-03-07T11:04:14.450Z,4.90
2018-03-07T11:06:41.389Z,5.03
2018-03-07T11:09:08.324Z,4.10
2018-03-07T11:11:35.252Z,3.40
2018-03-07T11:14:02.120Z,3.50
2018-03-07T11:16:29.094Z,3.47
2018-03-07T11:18:55.956Z,2.70
2018-03-07T11:21:22.815Z,2.83
2018-03-07T11:23:50.563Z,2.80
2018-03-07T11:26:17.496Z,2.70
2018-03-07T11:28:44.410Z,2.70
2018-03-07T11:31:11.262Z,2.57
2018-03-07T11:33:38.214Z,3.17
2018-03-07T11:36:05.091Z,2.47
2018-03-07T11:38:32.024Z,2.10
2018-03-07T11:40:58.948Z,1.97
2018-03-07T11:43:25.895Z,2.23
2018-03-07T11:45:52.841Z,3.40
2018-03-07T11:48:19.775Z,2.57
2018-03-07T11:50:46.643Z,2.70
2018-03-07T11:53:13.512Z,2.27
2018-03-07T11:55:40.471Z,2.30
2018-03-07T11:58:08.116Z,2.60
2018-03-07T12:00:35.094Z,2.60
2018-03-07T12:03:02.049Z,2.93
2018-03-07T12:05:28.927Z,2.77
2018-03-07T12:07:55.864Z,1.73
2018-03-07T12:10:22.819Z,1.80
2018-03-07T12:12:49.731Z,1.63
2018-03-07T12:15:16.594Z,2.00
2018-03-07T12:17:58.484Z,1.93
2018-03-07T12:20:39.187Z,2.10
2018-03-07T12:23:20.930Z,2.10
2018-03-07T12:28:36.276Z,1.77
2018-03-07T12:31:03.207Z,1.50
2018-03-07T12:33:30.112Z,1.70
2018-03-07T12:35:57.800Z,1.30
2018-03-07T12:38:37.506Z,1.63
2018-03-07T12:41:08.023Z,1.70
2018-03-07T12:43:34.969Z,1.67
2018-03-07T12:46:01.828Z,2.60
2018-03-07T12:48:29.460Z,2.13
2018-03-07T12:50:56.437Z,1.60
2018-03-07T12:53:23.303Z,1.70
2018-03-07T12:55:50.232Z,1.57
2018-03-07T12:58:17.099Z,1.60
2018-03-07T13:00:44.056Z,1.10
2018-03-07T13:03:10.915Z,1.43
2018-03-07T13:05:37.799Z,1.40
2018-03-07T13:08:04.736Z,1.30
2018-03-07T13:10:43.265Z,1.87
2018-03-07T13:13:19.108Z,1.20
2018-03-07T13:15:49.465Z,1.73
2018-03-07T13:18:16.620Z,1.40
2018-03-07T13:20:51.118Z,1.37
2018-03-07T13:23:32.155Z,1.40
2018-03-07T13:26:14.423Z,3.53
2018-03-07T13:28:56.423Z,1.80
2018-03-07T13:34:13.125Z,1.90
2018-03-07T13:36:40.093Z,1.50
2018-03-07T13:39:13.437Z,1.80
2018-03-07T13:41:50.909Z,2.07
2018-03-07T13:44:31.212Z,2.20
2018-03-07T13:47:15.341Z,1.20
2018-03-07T13:49:46.239Z,1.80
2018-03-07T13:52:24.406Z,1.90
2018-03-07T13:55:08.771Z,1.00
2018-03-07T13:57:48.066Z,1.20
2018-03-07T14:00:26.813Z,0.87
2018-03-07T14:02:57.138Z,1.53
2018-03-07T14:05:24.193Z,1.70
2018-03-07T14:07:55.280Z,1.30
2018-03-07T14:10:23.712Z,1.40
2018-03-07T14:12:50.581Z,1.17
2018-03-07T14:15:22.850Z,1.13
2018-03-07T14:18:01.582Z,1.00
2018-03-07T14:20:29.158Z,1.47
2018-03-07T14:22:56.044Z,1.20
2018-03-07T14:25:25.546Z,1.17
2018-03-07T14:27:52.568Z,1.20
2018-03-07T14:30:19.547Z,1.30
2018-03-07T14:32:49.202Z,1.30
2018-03-07T14:35:16.131Z,1.20
2018-03-07T14:37:43.002Z,1.20
2018-03-07T14:40:10.000Z,1.40
2018-03-07T14:42:36.964Z,1.10
2018-03-07T14:45:03.996Z,1.20
2018-03-07T14:47:30.847Z,1.30
2018-03-07T14:49:57.743Z,1.20
2018-03-07T14:52:24.691Z,1.20
2018-03-07T14:54:51.552Z,1.30
2018-03-07T14:57:18.479Z,0.83
2018-03-07T14:59:45.354Z,1.20
2018-03-07T15:02:12.323Z,0.83
2018-03-07T15:04:39.243Z,0.73
2018-03-07T15:07:06.128Z,0.90
2018-03-07T15:09:33.071Z,1.00
2018-03-07T15:12:00.030Z,1.00
2018-03-07T15:14:27.672Z,1.27
2018-03-07T15:16:54.632Z,0.93
2018-03-07T15:19:21.545Z,1.30
2018-03-07T15:21:48.499Z,1.03
2018-03-07T15:24:15.504Z,1.00
2018-03-07T15:26:42.407Z,1.03
2018-03-07T15:29:09.407Z,1.10
2018-03-07T15:31:44.860Z,1.10
2018-03-07T15:34:21.973Z,1.00
2018-03-07T15:37:01.848Z,1.07
2018-03-07T15:39:29.668Z,1.00
2018-03-07T15:42:07.547Z,0.93
2018-03-07T15:44:38.926Z,1.37
2018-03-07T15:47:05.999Z,1.50
2018-03-07T15:49:38.859Z,1.50
2018-03-07T15:52:14.638Z,2.00
2018-03-07T15:54:48.050Z,1.60
2018-03-07T15:57:26.194Z,1.77
2018-03-07T16:00:05.596Z,1.40
2018-03-07T16:02:48.394Z,0.87
2018-03-07T16:05:28.945Z,1.00
2018-03-07T16:07:56.703Z,0.97
2018-03-07T16:10:32.176Z,1.10
2018-03-07T16:13:13.395Z,0.90
2018-03-07T16:15:54.966Z,1.30
2018-03-07T16:18:35.677Z,1.40
2018-03-07T16:21:03.480Z,1.10
2018-03-07T16:23:44.408Z,1.00
2018-03-07T16:26:12.173Z,1.67
2018-03-07T16:28:39.184Z,1.53
2018-03-07T16:31:06.076Z,1.30
2018-03-07T16:33:33.013Z,1.10
2018-03-07T16:35:59.996Z,1.60
2018-03-07T16:38:28.268Z,1.53
2018-03-07T16:40:55.224Z,1.57
2018-03-07T16:43:30.972Z,1.90
2018-03-07T16:45:57.853Z,3.90
2018-03-07T16:48:25.635Z,3.60
2018-03-07T16:50:57.125Z,5.00
2018-03-07T16:53:26.540Z,2.60
2018-03-07T16:55:53.399Z,2.17
2018-03-07T16:58:20.330Z,1.83
2018-03-07T17:00:51.894Z,1.93
2018-03-07T17:03:18.853Z,1.20
2018-03-07T17:05:59.206Z,1.47
2018-03-07T17:08:26.912Z,0.80
2018-03-07T17:10:53.848Z,0.97
2018-03-07T17:13:20.775Z,1.20
2018-03-07T17:15:47.719Z,0.97
2018-03-07T17:18:23.348Z,1.03
2018-03-07T17:21:01.097Z,1.40
2018-03-07T17:23:28.552Z,1.60
2018-03-07T17:25:55.576Z,1.40
2018-03-07T17:28:22.519Z,1.50
2018-03-07T17:30:49.515Z,2.00
2018-03-07T17:33:16.467Z,3.40
2018-03-07T17:35:43.355Z,3.40
2018-03-07T17:38:10.215Z,2.20
2018-03-07T17:40:37.883Z,2.50
2018-03-07T17:43:05.559Z,2.17
2018-03-07T17:45:33.223Z,2.50
2018-03-07T17:48:00.080Z,2.90
2018-03-07T17:50:27.019Z,2.83
2018-03-07T17:52:53.883Z,3.27
2018-03-07T17:55:20.815Z,2.63
2018-03-07T17:57:47.819Z,2.47
2018-03-07T18:00:14.693Z,3.17
2018-03-07T18:02:41.572Z,2.43
2018-03-07T18:05:08.515Z,2.43
2018-03-07T18:07:35.375Z,1.90
2018-03-07T18:10:02.314Z,2.20
2018-03-07T18:12:29.196Z,2.20
2018-03-07T18:14:56.143Z,2.50
2018-03-07T18:17:23.155Z,2.03
2018-03-07T18:19:50.040Z,2.50
2018-03-07T18:22:17.080Z,2.40
2018-03-07T18:24:44.700Z,1.70
2018-03-07T18:27:11.628Z,2.00
2018-03-07T18:29:38.507Z,2.23
2018-03-07T18:32:05.499Z,2.13
2018-03-07T18:34:33.286Z,1.70
2018-03-07T18:37:00.230Z,1.90
2018-03-07T18:39:27.085Z,2.10
2018-03-07T18:41:55.323Z,1.80
2018-03-07T18:44:27.709Z,2.17
2018-03-07T18:46:56.641Z,2.27
2018-03-07T18:49:24.369Z,1.90
2018-03-07T18:51:51.368Z,2.10
2018-03-07T18:54:18.304Z,2.60
2018-03-07T18:56:48.757Z,2.27
2018-03-07T18:59:17.166Z,2.60
2018-03-07T19:01:44.241Z,2.20
2018-03-07T19:04:11.136Z,2.27
2018-03-07T19:06:38.063Z,2.23
2018-03-07T19:09:05.058Z,2.67
2018-03-07T19:11:31.952Z,1.97
2018-03-07T19:13:58.887Z,2.17
2018-03-07T19:16:25.752Z,2.35
2018-03-07T19:18:52.700Z,2.35
2018-03-07T19:21:22.722Z,2.08
2018-03-07T19:23:50.539Z,2.75
2018-03-07T19:26:18.098Z,2.00
2018-03-07T19:28:58.771Z,2.60
2018-03-07T19:31:40.135Z,3.03
2018-03-07T19:34:22.987Z,2.55
2018-03-07T19:36:56.113Z,3.25
2018-03-07T19:39:23.056Z,3.12
2018-03-07T19:41:49.932Z,3.45
2018-03-07T19:44:17.630Z,3.50
2018-03-07T19:46:44.524Z,3.83
2018-03-07T19:49:12.905Z,4.00
2018-03-07T19:54:35.136Z,3.50
2018-03-07T19:57:07.173Z,3.60
2018-03-07T19:59:35.540Z,5.62
2018-03-07T20:02:16.972Z,4.55
2018-03-07T20:04:58.201Z,4.20
2018-03-07T20:07:40.182Z,3.40
2018-03-07T20:10:20.446Z,4.60
2018-03-07T20:13:01.912Z,4.05
2018-03-07T20:15:42.228Z,4.07
2018-03-07T20:18:09.716Z,4.45
2018-03-07T20:20:37.854Z,4.57
2018-03-07T20:23:14.331Z,4.10
2018-03-07T20:28:38.647Z,4.47
2018-03-07T20:31:21.071Z,5.60
2018-03-07T20:34:01.089Z,5.43
2018-03-07T20:36:28.652Z,5.90
2018-03-07T20:38:56.790Z,5.30
2018-03-07T20:41:36.070Z,5.45
2018-03-07T20:44:16.742Z,6.03
2018-03-07T20:46:57.483Z,4.67
2018-03-07T20:49:37.093Z,4.35
2018-03-07T20:52:18.725Z,5.00
2018-03-07T20:55:00.221Z,4.22
2018-03-07T20:57:40.140Z,4.75
2018-03-07T21:03:04.319Z,4.80
2018-03-07T21:05:43.812Z,5.18
2018-03-07T21:08:24.244Z,4.60
2018-03-07T21:13:49.389Z,4.68
2018-03-07T21:16:30.280Z,4.55
2018-03-07T21:19:08.716Z,5.20
2018-03-07T21:21:35.680Z,4.70
2018-03-07T21:24:03.083Z,5.13
2018-03-07T21:26:33.794Z,5.07
2018-03-07T21:29:01.041Z,4.90
2018-03-07T21:31:43.309Z,5.03
2018-03-07T21:34:25.632Z,4.37
2018-03-07T21:37:04.882Z,5.18
2018-03-07T21:39:46.125Z,5.10
2018-03-07T21:42:27.039Z,5.50
2018-03-07T21:44:55.654Z,6.72
2018-03-07T21:47:22.707Z,7.72
2018-03-07T21:49:50.588Z,8.20
2018-03-07T21:52:18.988Z,8.48
2018-03-07T21:54:45.963Z,8.98
2018-03-07T21:57:21.003Z,10.10
2018-03-07T22:00:01.822Z,10.48
2018-03-07T22:02:42.041Z,10.55
2018-03-07T22:05:24.061Z,10.60
2018-03-07T22:08:05.619Z,10.27
2018-03-07T22:10:33.412Z,10.52
2018-03-07T22:13:00.423Z,10.13
2018-03-07T22:15:27.288Z,11.45
2018-03-07T22:17:54.200Z,10.65
2018-03-07T22:20:21.147Z,11.32
2018-03-07T22:22:48.123Z,12.18
2018-03-07T22:25:15.017Z,14.07
2018-03-07T22:27:41.979Z,11.82
2018-03-07T22:30:09.658Z,11.65
2018-03-07T22:32:36.654Z,11.32
2018-03-07T22:35:03.552Z,12.10
2018-03-07T22:37:30.447Z,11.30
2018-03-07T22:39:57.395Z,14.38
2018-03-07T22:42:24.274Z,10.85
2018-03-07T22:44:51.255Z,12.07
2018-03-07T22:47:18.126Z,12.00
2018-03-07T22:49:47.265Z,12.15
2018-03-07T22:52:14.504Z,12.93
2018-03-07T22:54:42.663Z,11.77
2018-03-07T22:57:12.262Z,12.77
2018-03-07T22:59:39.673Z,12.82
2018-03-07T23:02:07.806Z,11.85
2018-03-07T23:04:37.631Z,13.35
2018-03-07T23:07:09.029Z,12.55
2018-03-07T23:09:36.444Z,11.23
2018-03-07T23:12:03.540Z,10.77
2018-03-07T23:14:31.983Z,11.25
2018-03-07T23:16:58.933Z,11.45
2018-03-07T23:19:26.257Z,11.32
2018-03-07T23:21:54.484Z,10.38
2018-03-07T23:24:22.920Z,9.20
2018-03-07T23:26:50.964Z,9.63
2018-03-07T23:29:17.896Z,10.07
2018-03-07T23:31:45.576Z,10.45
2018-03-07T23:34:13.424Z,9.15
2018-03-07T23:36:41.440Z,9.90
2018-03-07T23:39:09.759Z,9.07
2018-03-07T23:41:36.619Z,9.13
2018-03-07T23:44:03.516Z,9.40
2018-03-07T23:46:31.892Z,8.88
2018-03-07T23:49:00.328Z,8.85
2018-03-07T23:51:28.760Z,9.00
2018-03-07T23:53:55.757Z,9.10
2018-03-07T23:56:22.879Z,7.82
2018-03-07T23:58:51.344Z,8.90
